Overview Statistics Trail Chart Weather Telemetry Raw packets
 

This is the latest recevied weather packets stored in our database for station/object OE3AOG-10. If no packets are shown the sender has not sent any weather packets the latest 10 day(s).

<< 3 4 5 6 7 8 9 >>
Time Temp. Humidity Pressure Rain* Wind** Luminosity Snow
1788183718 28.33° C 35% 1017.2 hPa - - - -
1788180118 28.33° C 32% 1017.7 hPa - - - -
1788176518 27.78° C 31% 1017.9 hPa - - - -
1788172918 30° C 32% 1017.5 hPa - - - -
1788169318 31.67° C 35% 1017.2 hPa - - - -
1788165717 28.89° C 42% 1017.6 hPa - - - -
1788162116 26.11° C 46% 1016.7 hPa - - - -
1788158517 23.33° C 52% 1016.6 hPa - - - -
1788154917 20.56° C 57% 1016.2 hPa - - - -
1788151317 18.89° C 59% 1016.2 hPa - - - -
1788147716 17.78° C 59% 1015.8 hPa - - - -
1788144116 17.78° C 58% 1016 hPa - - - -
1788140515 18.89° C 55% 1016.2 hPa - - - -
1788136917 19.44° C 54% 1016.5 hPa - - - -
1788133317 20° C 52% 1016.7 hPa - - - -
1788129717 20.56° C 49% 1016.9 hPa - - - -
1788126116 21.67° C 47% 1016.9 hPa - - - -
1788122516 22.22° C 45% 1017 hPa - - - -
1788118916 23.33° C 41% 1016.9 hPa - - - -
1788115315 25° C 37% 1016.6 hPa - - - -
1788111715 27.78° C 32% 1016.3 hPa - - - -
1788108114 30.56° C 27% 1016 hPa - - - -
1788104514 31.67° C 26% 1016.3 hPa - - - -
1788100914 32.78° C 23% 1016.5 hPa - - - -
1788097314 35.56° C 23% 1017.2 hPa - - - -

* Rain since midnight (hover to see other rain measurements)
** Current wind speed in m/s (hover to see current wind gust speed)